This is the latest recevied weather packets stored in our database for station/object DC3YC-13. If no packets are shown the sender has not sent any weather packets the latest 10 day(s).
| Time | Temp. | Humidity | Pressure | Rain* | Wind** | Luminosity | Snow |
|---|---|---|---|---|---|---|---|
| 1777685791 | 5° C | 88% | 1022.7 hPa | 0 mm | - | - | - |
| 1777685191 | 5° C | 88% | 1022.7 hPa | 0 mm | - | - | - |
| 1777684591 | 5° C | 88% | 1022.7 hPa | 0 mm | - | - | - |
| 1777683991 | 6.11° C | 88% | 1022.7 hPa | 0 mm | - | - | - |
| 1777683391 | 6.11° C | 85% | 1022.7 hPa | 0 mm | - | - | - |
| 1777682791 | 6.11° C | 85% | 1022.7 hPa | 0 mm | - | - | - |
| 1777682191 | 6.11° C | 85% | 1022.7 hPa | 0 mm | - | - | - |
| 1777681591 | 7.22° C | 83% | 1022.7 hPa | 0 mm | - | - | - |
| 1777680991 | 6.11° C | 84% | 1022.7 hPa | 0 mm | - | - | - |
| 1777680391 | 7.22° C | 83% | 1022.7 hPa | 0 mm | - | - | - |
| 1777679791 | 7.22° C | 83% | 1022.6 hPa | 0 mm | - | - | - |
| 1777679191 | 7.22° C | 83% | 1022.6 hPa | 0 mm | - | - | - |
| 1777678591 | 7.22° C | 83% | 1022.6 hPa | 0 mm | - | - | - |
| 1777677991 | 7.22° C | 83% | 1022.6 hPa | 0 mm | - | - | - |
| 1777677391 | 7.22° C | 82% | 1023.7 hPa | 0 mm | - | - | - |
| 1777676791 | 7.78° C | 81% | 1022.6 hPa | 0 mm | - | - | - |
| 1777676191 | 7.78° C | 80% | 1022.6 hPa | 0 mm | - | - | - |
| 1777675591 | 7.78° C | 78% | 1023.7 hPa | 0 mm | - | - | - |
| 1777674991 | 7.78° C | 78% | 1022.6 hPa | 0 mm | - | - | - |
| 1777674392 | 7.78° C | 78% | 1023.7 hPa | 0 mm | - | - | - |
| 1777673791 | 8.89° C | 77% | 1023.7 hPa | 0 mm | - | - | - |
| 1777673191 | 8.89° C | 77% | 1023.7 hPa | 0 mm | - | - | - |
| 1777672591 | 8.89° C | 75% | 1023.7 hPa | 0 mm | - | - | - |
| 1777671991 | 7.78° C | 78% | 1022.6 hPa | 0 mm | - | - | - |
| 1777671391 | 8.89° C | 77% | 1022.6 hPa | 0 mm | - | - | - |
* Rain latest hour (hover to see other rain measurements)
** Current wind speed in m/s (hover to see current wind gust speed)